Time;durP1;ratioP1;P1;durP2;ratioP2;P2;SDS_P1;SDS_P2;PMS_P1;PMS_P2;Temp;Humidity;BMP_temperature;BMP_pressure;BME280_temperature;BME280_humidity;BME280_pressure;Samples;Min_cycle;Max_cycle;Signal;HPM_P1;HPM_P2
2021/06/05 00:00:15;;;;;;;5.50;3.15;;;;;;;15.10;75.35;100988.19;1744392;81;20888;-75
2021/06/05 00:02:42;;;;;;;11.88;3.55;;;;;;;15.11;75.34;100985.06;1744722;82;20955;-75
2021/06/05 00:05:09;;;;;;;8.38;3.45;;;;;;;15.10;75.08;100978.94;1744746;82;21355;-76
2021/06/05 00:07:36;;;;;;;7.62;4.10;;;;;;;15.10;75.33;100974.98;1744612;81;20951;-74
2021/06/05 00:10:09;;;;;;;7.85;3.37;;;;;;;15.09;75.32;100975.92;1744359;82;22058;-75
2021/06/05 00:12:36;;;;;;;5.70;2.37;;;;;;;15.07;74.79;100977.86;1744447;81;20885;-75
2021/06/05 00:15:08;;;;;;;6.60;3.27;;;;;;;15.06;75.08;100973.52;1744460;81;20975;-76
2021/06/05 00:17:34;;;;;;;7.50;3.12;;;;;;;15.06;75.30;100973.52;1744788;80;20962;-76
2021/06/05 00:20:09;;;;;;;5.53;2.95;;;;;;;15.07;75.13;100980.50;1708725;82;20944;-76
2021/06/05 00:22:37;;;;;;;9.00;2.85;;;;;;;15.09;75.11;100973.28;1708901;84;26590;-76
2021/06/05 00:25:06;;;;;;;7.60;3.00;;;;;;;15.12;74.78;100974.39;1708896;84;20963;-76
2021/06/05 00:27:34;;;;;;;4.15;2.72;;;;;;;15.15;74.65;100975.13;1708753;82;20881;-76
2021/06/05 00:30:05;;;;;;;6.42;3.47;;;;;;;15.15;74.78;100972.00;1708863;84;20948;-77
2021/06/05 00:32:32;;;;;;;9.55;5.22;;;;;;;15.15;74.69;100976.45;1708915;84;21003;-76
2021/06/05 00:34:59;;;;;;;7.87;2.90;;;;;;;15.15;74.57;100976.45;1709100;84;21107;-76
2021/06/05 00:37:26;;;;;;;4.87;2.95;;;;;;;15.11;74.65;100972.69;1708917;84;20873;-75
2021/06/05 00:39:53;;;;;;;11.70;6.55;;;;;;;15.11;74.32;100971.37;1709096;82;20947;-75
2021/06/05 00:42:20;;;;;;;12.73;3.98;;;;;;;15.08;74.04;100974.73;1708856;84;20857;-76
2021/06/05 00:44:47;;;;;;;9.55;2.83;;;;;;;15.06;74.14;100972.19;1709307;83;20932;-74
2021/06/05 00:47:15;;;;;;;6.78;3.20;;;;;;;15.07;73.97;100967.29;1708842;84;21947;-74
2021/06/05 00:49:43;;;;;;;6.90;3.10;;;;;;;15.07;73.76;100971.25;1708811;84;20912;-75
2021/06/05 00:52:10;;;;;;;4.55;2.60;;;;;;;15.07;73.74;100969.94;1708970;84;21510;-75
2021/06/05 00:54:39;;;;;;;8.55;3.00;;;;;;;15.08;73.95;100963.68;1734296;82;20909;-75
2021/06/05 00:57:07;;;;;;;18.42;5.70;;;;;;;15.08;73.64;100965.00;1744952;82;20869;-76
2021/06/05 00:59:35;;;;;;;10.55;3.00;;;;;;;15.09;73.25;100965.35;1744632;82;21147;-77
2021/06/05 01:02:05;;;;;;;11.90;3.20;;;;;;;15.08;73.33;100966.80;1744558;81;21417;-76
2021/06/05 01:04:36;;;;;;;7.87;2.60;;;;;;;15.05;73.23;100963.05;1744631;81;20889;-78
2021/06/05 01:07:28;;;;;;;9.43;3.02;;;;;;;15.04;73.26;100954.78;1744911;82;21351;-74
2021/06/05 01:10:04;;;;;;;4.85;2.65;;;;;;;15.03;73.80;100959.22;1700787;82;20860;-75
2021/06/05 01:13:02;;;;;;;7.20;2.22;;;;;;;15.03;73.28;100953.07;1716353;82;21995;-75
2021/06/05 01:15:41;;;;;;;9.60;2.55;;;;;;;15.03;72.97;100955.27;1716561;83;20848;-76
2021/06/05 01:18:13;;;;;;;5.83;2.40;;;;;;;15.06;73.12;100958.16;1716583;83;20892;-76
2021/06/05 01:20:53;;;;;;;6.78;3.30;;;;;;;15.05;73.25;100951.16;1752984;81;21521;-76
2021/06/05 01:23:59;;;;;;;8.28;3.27;;;;;;;15.05;73.35;100953.35;1728430;82;20991;-76
2021/06/05 01:26:41;;;;;;;6.25;3.10;;;;;;;15.06;73.52;100952.86;1716545;83;21151;-76
2021/06/05 01:29:16;;;;;;;5.30;2.40;;;;;;;15.06;73.76;100946.27;1716355;83;20971;-76
2021/06/05 01:31:45;;;;;;;;;;;;;;;15.04;74.06;100957.42;1719300;83;21416;-77
2021/06/05 01:34:13;;;;;;;4.12;2.75;;;;;;;15.02;74.36;100960.16;1700728;84;20098;-74
2021/06/05 01:36:48;;;;;;;7.30;2.72;;;;;;;15.02;74.59;100956.69;1700727;84;21047;-74
2021/06/05 01:39:20;;;;;;;5.33;3.00;;;;;;;15.01;74.78;100957.17;1701168;84;21135;-73
2021/06/05 01:41:47;;;;;;;4.37;2.77;;;;;;;15.01;74.81;100955.02;1700974;84;20902;-73
2021/06/05 01:44:14;;;;;;;7.05;3.45;;;;;;;15.01;75.03;100958.48;1675040;84;20934;-75
2021/06/05 01:46:46;;;;;;;8.05;2.12;;;;;;;15.01;75.02;100955.02;1698310;84;20956;-75
2021/06/05 01:49:15;;;;;;;6.37;2.77;;;;;;;15.04;75.01;100953.45;1700890;84;21114;-75
2021/06/05 01:51:56;;;;;;;4.40;3.20;;;;;;;15.07;74.56;100951.90;1675846;84;21120;-74
2021/06/05 01:54:34;;;;;;;8.58;2.87;;;;;;;15.08;74.06;100951.80;1708483;83;20996;-75
2021/06/05 01:57:05;;;;;;;4.85;2.90;;;;;;;15.07;73.89;100950.13;1708761;83;21511;-75
2021/06/05 01:59:43;;;;;;;6.42;3.12;;;;;;;15.06;73.84;100952.38;1698501;84;21044;-74
2021/06/05 02:02:10;;;;;;;7.62;2.62;;;;;;;15.03;73.93;100953.94;1708840;83;20945;-75
2021/06/05 02:04:38;;;;;;;4.12;2.70;;;;;;;15.00;74.16;100950.19;1708564;84;21414;-75
2021/06/05 02:07:06;;;;;;;6.08;2.80;;;;;;;14.97;73.89;100958.34;1708595;83;21005;-73
2021/06/05 02:09:36;;;;;;;6.87;2.65;;;;;;;14.93;74.15;100960.35;1708673;83;20865;-76
2021/06/05 02:12:30;;;;;;;6.25;2.55;;;;;;;14.89;74.33;100958.88;1700612;84;20926;-74
2021/06/05 02:15:13;;;;;;;8.58;3.40;;;;;;;14.86;74.31;100956.48;1682331;84;20937;-74
2021/06/05 02:17:41;;;;;;;9.50;2.98;;;;;;;14.84;74.19;100962.83;1702236;84;21120;-75
2021/06/05 02:20:15;;;;;;;5.08;2.35;;;;;;;14.77;73.74;100957.16;1701257;83;20917;-76
2021/06/05 02:22:44;;;;;;;7.80;3.75;;;;;;;14.73;73.90;100956.16;1701490;83;20925;-74
2021/06/05 02:25:14;;;;;;;6.75;3.62;;;;;;;14.68;74.28;100965.73;1700876;83;21528;-74
2021/06/05 02:27:41;;;;;;;11.12;3.40;;;;;;;14.66;74.38;100962.36;1701303;84;21028;-75
2021/06/05 02:30:14;;;;;;;7.83;2.80;;;;;;;14.62;74.34;100959.09;1700193;84;21173;-74
2021/06/05 02:32:41;;;;;;;10.32;2.65;;;;;;;14.58;74.45;100961.58;1680925;84;20905;-73
2021/06/05 02:35:12;;;;;;;9.93;3.10;;;;;;;14.54;74.67;100963.19;1700941;84;20854;-73
2021/06/05 02:37:46;;;;;;;5.22;2.95;;;;;;;14.47;74.77;100962.78;1700679;83;20933;-74
2021/06/05 02:40:18;;;;;;;10.80;2.37;;;;;;;14.41;74.79;100958.80;1700951;83;20921;-74
2021/06/05 02:42:46;;;;;;;8.88;3.00;;;;;;;14.39;74.35;100955.91;1701255;83;21067;-75
2021/06/05 02:45:25;;;;;;;9.93;3.12;;;;;;;14.38;74.10;100956.36;1701035;84;21434;-74
2021/06/05 02:48:01;;;;;;;7.90;2.58;;;;;;;14.37;74.02;100963.92;1701061;84;20961;-75
2021/06/05 02:50:40;;;;;;;7.40;2.60;;;;;;;14.39;73.71;100961.19;1680589;84;20901;-75
2021/06/05 02:53:09;;;;;;;6.55;2.15;;;;;;;14.40;73.66;100966.33;1701154;83;20873;-74
2021/06/05 02:55:36;;;;;;;5.25;2.60;;;;;;;14.44;73.64;100956.41;1700881;84;21065;-74
2021/06/05 02:58:06;;;;;;;4.72;2.67;;;;;;;14.47;73.78;100962.78;1700847;83;20890;-75
2021/06/05 03:00:41;;;;;;;10.18;2.35;;;;;;;14.48;74.11;100966.64;1701532;83;20898;-75
2021/06/05 03:03:11;;;;;;;5.53;2.47;;;;;;;14.54;73.87;100962.73;1701208;83;20957;-74
2021/06/05 03:05:38;;;;;;;6.83;3.35;;;;;;;14.60;72.97;100957.52;1700957;84;20893;-75
2021/06/05 03:08:09;;;;;;;4.22;2.70;;;;;;;14.65;72.43;100956.70;1701289;83;21094;-74
2021/06/05 03:10:37;;;;;;;4.95;2.02;;;;;;;14.71;72.39;100954.46;1700719;83;20897;-75
2021/06/05 03:13:07;;;;;;;6.50;2.30;;;;;;;14.80;72.26;100958.72;1708817;84;20948;-74
2021/06/05 03:15:35;;;;;;;2.30;2.10;;;;;;;14.86;71.92;100961.76;1708699;84;20992;-73
2021/06/05 03:18:03;;;;;;;6.67;3.05;;;;;;;14.94;71.55;100957.26;1708819;84;21449;-75
2021/06/05 03:20:35;;;;;;;7.62;2.70;;;;;;;15.03;71.03;100961.00;1708713;84;21127;-75
2021/06/05 03:23:03;;;;;;;8.30;3.05;;;;;;;15.10;70.76;100964.41;1708293;84;21461;-74
2021/06/05 03:25:30;;;;;;;5.85;2.52;;;;;;;15.18;70.53;100964.32;1708688;84;20964;-74
2021/06/05 03:27:58;;;;;;;9.85;2.50;;;;;;;15.23;70.42;100962.17;1708675;83;20945;-74
2021/06/05 03:30:27;;;;;;;8.33;2.90;;;;;;;15.28;70.51;100967.49;1708712;83;20937;-74
2021/06/05 03:32:55;;;;;;;3.05;2.10;;;;;;;15.34;70.56;100966.20;1708836;84;21086;-75
2021/06/05 03:35:22;;;;;;;8.23;2.30;;;;;;;15.41;69.89;100966.59;1708979;84;20963;-75
2021/06/05 03:37:50;;;;;;;5.53;2.60;;;;;;;15.50;69.72;100963.25;1708788;83;20953;-74
2021/06/05 03:40:23;;;;;;;6.28;2.22;;;;;;;15.59;69.80;100959.08;1708793;84;20984;-74
2021/06/05 03:42:50;;;;;;;6.53;3.00;;;;;;;15.68;69.81;100966.30;1708781;84;20905;-75
2021/06/05 03:45:17;;;;;;;6.15;2.50;;;;;;;15.75;69.01;100966.23;1708927;84;21058;-75
2021/06/05 03:47:46;;;;;;;5.30;2.40;;;;;;;15.86;68.89;100964.09;1708649;83;21554;-77
2021/06/05 03:50:19;;;;;;;5.08;2.83;;;;;;;15.92;68.84;100959.66;1708916;83;20980;-75
2021/06/05 03:52:46;;;;;;;5.85;2.77;;;;;;;15.98;68.08;100959.16;1708756;84;20937;-76
2021/06/05 03:55:13;;;;;;;12.03;2.83;;;;;;;16.05;67.54;100952.91;1709047;84;21445;-76
2021/06/05 03:57:40;;;;;;;7.70;2.15;;;;;;;16.09;67.72;100955.20;1708726;84;21434;-76
2021/06/05 04:00:11;;;;;;;13.38;3.17;;;;;;;16.13;67.57;100956.65;1708594;83;20972;-76
2021/06/05 04:02:40;;;;;;;4.87;2.50;;;;;;;16.20;67.87;100949.07;1709010;83;20928;-77
2021/06/05 04:05:08;;;;;;;7.50;2.67;;;;;;;16.26;68.07;100951.25;1709023;83;20909;-76
2021/06/05 04:07:35;;;;;;;8.63;3.27;;;;;;;16.34;68.08;100942.69;1708851;83;21441;-77
2021/06/05 04:10:05;;;;;;;4.35;2.20;;;;;;;16.45;67.56;100957.72;1708772;83;21216;-76
2021/06/05 04:12:32;;;;;;;12.25;3.10;;;;;;;16.55;67.06;100955.55;1717412;83;20924;-76
2021/06/05 04:14:59;;;;;;;4.70;2.92;;;;;;;16.65;66.54;100954.34;1721724;83;21342;-77
2021/06/05 04:17:27;;;;;;;4.58;2.67;;;;;;;16.79;65.92;100954.55;1721693;83;20905;-76
2021/06/05 04:19:55;;;;;;;5.05;3.15;;;;;;;16.93;65.44;100954.78;1721845;83;20936;-77
2021/06/05 04:22:23;;;;;;;5.58;2.70;;;;;;;17.09;65.09;100959.67;1721938;83;21098;-75
2021/06/05 04:26:27;;;;;;;6.10;2.50;;;;;;;17.47;63.92;100949.02;1798713;79;22269;-75
2021/06/05 04:28:54;;;;;;;11.45;3.70;;;;;;;17.68;63.25;100947.22;1758591;81;20951;-78
2021/06/05 04:31:23;;;;;;;8.10;2.58;;;;;;;18.01;63.03;100947.50;1758458;81;20932;-78
2021/06/05 04:33:49;;;;;;;5.60;2.83;;;;;;;18.43;61.40;100943.41;1758371;81;21015;-77
2021/06/05 04:36:17;;;;;;;8.63;2.95;;;;;;;18.91;61.10;100943.17;1758615;80;20861;-75
2021/06/05 04:38:47;;;;;;;2.70;1.70;;;;;;;19.52;59.87;100942.06;1758459;80;20952;-76
2021/06/05 04:41:17;;;;;;;6.42;1.90;;;;;;;20.13;58.13;100940.80;1694309;83;20935;-74
2021/06/05 04:43:44;;;;;;;6.70;2.35;;;;;;;20.70;56.56;100933.52;1724906;81;21966;-76
2021/06/05 04:46:13;;;;;;;5.65;2.27;;;;;;;21.22;55.19;100932.01;1725076;82;20982;-75
2021/06/05 04:48:43;;;;;;;5.72;2.52;;;;;;;21.73;53.88;100927.74;1724905;83;21503;-72
2021/06/05 04:51:12;;;;;;;2.98;2.52;;;;;;;22.24;52.79;100930.55;1725097;83;21480;-74
2021/06/05 04:53:40;;;;;;;8.38;3.15;;;;;;;22.67;51.52;100929.50;1724808;81;20983;-77
2021/06/05 04:56:08;;;;;;;5.65;1.90;;;;;;;23.08;50.33;100926.94;1725085;82;21105;-74
2021/06/05 04:58:35;;;;;;;8.28;1.90;;;;;;;23.42;49.84;100927.27;1724741;83;20974;-74
2021/06/05 05:01:02;;;;;;;5.30;1.80;;;;;;;23.80;48.95;100916.85;1724772;81;21439;-75
2021/06/05 05:03:30;;;;;;;6.55;2.22;;;;;;;23.99;47.75;100915.64;1724907;82;20970;-74
2021/06/05 05:06:01;;;;;;;3.65;2.12;;;;;;;24.04;47.67;100911.93;1711383;84;20999;-74
2021/06/05 05:08:29;;;;;;;5.00;2.00;;;;;;;24.00;47.57;100915.95;1711145;84;21097;-74
2021/06/05 05:10:56;;;;;;;5.60;2.27;;;;;;;23.96;47.03;100915.97;1721996;83;20904;-74
2021/06/05 05:13:27;;;;;;;9.45;2.35;;;;;;;23.85;47.38;100914.48;1722238;83;20991;-75
2021/06/05 05:15:54;;;;;;;4.80;2.25;;;;;;;23.74;47.50;100911.63;1722288;83;20932;-76
2021/06/05 05:18:23;;;;;;;5.75;2.52;;;;;;;23.76;47.41;100912.33;1722258;82;20956;-76
2021/06/05 05:20:51;;;;;;;4.05;2.40;;;;;;;23.90;46.83;100902.77;1722216;83;21947;-75
2021/06/05 05:23:19;;;;;;;8.25;2.87;;;;;;;24.12;46.74;100914.59;1722081;82;20892;-76
2021/06/05 05:25:48;;;;;;;3.20;2.08;;;;;;;24.30;46.08;100910.32;1719308;82;20952;-76
2021/06/05 05:28:16;;;;;;;8.85;2.72;;;;;;;24.38;45.95;100906.23;1717824;83;20917;-75
2021/06/05 05:30:51;;;;;;;5.67;2.35;;;;;;;24.36;45.23;100910.94;1717789;83;20956;-76
2021/06/05 05:33:20;;;;;;;6.22;2.52;;;;;;;24.18;45.70;100907.17;1717581;83;21256;-75
2021/06/05 05:35:49;;;;;;;7.62;2.77;;;;;;;24.03;46.57;100907.56;1722264;82;20892;-75
2021/06/05 05:38:16;;;;;;;8.75;2.33;;;;;;;23.90;46.44;100905.93;1721945;83;20931;-76
2021/06/05 05:40:44;;;;;;;5.08;2.50;;;;;;;23.79;46.80;100905.31;1721814;82;21460;-77
2021/06/05 05:43:12;;;;;;;6.40;2.52;;;;;;;23.71;46.84;100905.80;1721858;83;20955;-76
2021/06/05 05:45:39;;;;;;;5.35;2.12;;;;;;;23.62;47.23;100906.83;1721826;83;21985;-76
2021/06/05 05:48:08;;;;;;;5.87;2.50;;;;;;;23.52;47.30;100907.00;1721771;83;20923;-76
2021/06/05 05:50:36;;;;;;;4.65;2.17;;;;;;;23.47;47.51;100898.14;1722039;82;20943;-78
2021/06/05 05:53:03;;;;;;;4.67;2.10;;;;;;;23.47;47.81;100893.30;1722057;83;21392;-77
2021/06/05 05:55:31;;;;;;;4.15;2.70;;;;;;;23.42;47.85;100892.47;1721994;82;21396;-74
2021/06/05 05:58:13;;;;;;;5.62;2.58;;;;;;;23.38;47.17;100885.77;1722005;83;21789;-75
2021/06/05 06:00:43;;;;;;;4.33;2.10;;;;;;;23.25;47.78;100888.13;1722024;82;20978;-78
2021/06/05 06:03:10;;;;;;;4.78;2.50;;;;;;;23.17;48.50;100890.32;1722239;82;21338;-77
2021/06/05 06:05:38;;;;;;;6.50;2.25;;;;;;;23.06;48.23;100884.80;1721976;82;21313;-74
2021/06/05 06:08:11;;;;;;;5.87;1.90;;;;;;;22.93;48.38;100878.57;1722734;82;20923;-82
2021/06/05 06:10:39;;;;;;;5.37;1.98;;;;;;;22.77;48.75;100882.58;1722011;83;21930;-84
2021/06/05 06:13:06;;;;;;;5.72;1.82;;;;;;;22.59;49.08;100873.36;1705621;83;20887;-84
2021/06/05 06:15:33;;;;;;;3.20;1.85;;;;;;;22.46;49.61;100879.17;1722645;83;21420;-85
2021/06/05 06:18:01;;;;;;;5.78;2.08;;;;;;;22.36;49.59;100867.78;1721959;82;20895;-84
2021/06/05 06:20:32;;;;;;;10.93;1.70;;;;;;;22.30;50.36;100874.63;1722471;83;20883;-84
2021/06/05 06:22:59;;;;;;;5.30;1.62;;;;;;;22.25;50.31;100874.26;1721996;83;21145;-86
2021/06/05 06:25:29;;;;;;;6.67;1.90;;;;;;;22.23;49.67;100869.61;1718092;82;20904;-86
2021/06/05 06:27:57;;;;;;;7.75;1.95;;;;;;;22.22;49.69;100868.42;1709244;84;21363;-84
2021/06/05 06:30:29;;;;;;;5.53;1.70;;;;;;;22.20;49.35;100863.70;1709316;82;20936;-84
2021/06/05 06:32:56;;;;;;;6.30;1.85;;;;;;;22.25;49.71;100866.24;1709273;84;20884;-83
2021/06/05 06:35:24;;;;;;;8.18;1.60;;;;;;;22.37;49.82;100872.14;1709381;83;21386;-83
2021/06/05 06:37:51;;;;;;;2.90;1.75;;;;;;;22.55;50.04;100864.83;1709090;82;20948;-83
2021/06/05 06:40:21;;;;;;;8.00;2.02;;;;;;;22.80;49.51;100868.04;1709284;84;20890;-83
2021/06/05 06:42:48;;;;;;;4.55;1.55;;;;;;;23.00;49.79;100868.58;1680557;85;20912;-83
2021/06/05 06:45:15;;;;;;;3.22;1.80;;;;;;;23.10;48.53;100854.03;1715618;82;21371;-82
2021/06/05 06:47:42;;;;;;;4.55;1.42;;;;;;;23.20;47.95;100865.89;1715433;82;21096;-82
2021/06/05 06:50:12;;;;;;;7.78;1.85;;;;;;;23.29;47.23;100864.05;1715163;82;20928;-83
2021/06/05 06:52:38;;;;;;;3.72;2.50;;;;;;;23.40;46.88;100857.51;1715127;83;21402;-80
2021/06/05 06:55:07;;;;;;;2.50;1.32;;;;;;;23.46;46.81;100854.16;1715320;82;20885;-84
2021/06/05 06:57:34;;;;;;;5.75;1.50;;;;;;;23.61;46.57;100849.77;1715303;82;20881;-85
2021/06/05 07:00:03;;;;;;;2.15;1.40;;;;;;;23.78;46.55;100851.39;1715657;82;21044;-85
2021/06/05 07:02:29;;;;;;;5.22;1.42;;;;;;;24.06;46.64;100852.31;1716323;82;20980;-86
2021/06/05 07:04:57;;;;;;;3.65;1.72;;;;;;;24.34;45.92;100860.68;1716474;82;20924;-85
2021/06/05 07:07:24;;;;;;;3.10;1.52;;;;;;;24.50;45.03;100854.45;1716363;82;20881;-73
2021/06/05 07:09:51;;;;;;;2.50;1.42;;;;;;;24.63;45.39;100851.66;1680400;85;21378;-71
2021/06/05 07:12:18;;;;;;;4.80;1.57;;;;;;;24.71;43.92;100849.76;1714962;83;21104;-73
2021/06/05 07:14:45;;;;;;;5.65;1.95;;;;;;;24.68;43.25;100851.47;1680454;85;20928;-74
2021/06/05 07:17:13;;;;;;;6.12;1.20;;;;;;;24.67;43.36;100848.95;1680250;84;21346;-72
2021/06/05 07:19:40;;;;;;;6.22;1.35;;;;;;;24.62;43.20;100842.79;1714890;83;20971;-74
2021/06/05 07:22:07;;;;;;;4.22;1.02;;;;;;;24.53;42.83;100839.33;1680578;85;20892;-73
2021/06/05 07:24:34;;;;;;;5.22;1.50;;;;;;;24.36;42.58;100841.23;1680307;84;21585;-72
2021/06/05 07:27:01;;;;;;;5.65;1.70;;;;;;;24.19;43.57;100845.88;1686389;85;20991;-73
2021/06/05 07:29:28;;;;;;;6.58;2.30;;;;;;;24.05;43.67;100840.41;1687651;85;21453;-72
2021/06/05 07:31:55;;;;;;;11.65;1.32;;;;;;;23.93;44.05;100845.33;1687947;85;20927;-73
2021/06/05 07:34:24;;;;;;;4.95;1.77;;;;;;;23.93;43.73;100850.18;1687658;85;20975;-74
2021/06/05 07:36:56;;;;;;;14.78;2.55;;;;;;;24.19;44.80;100846.39;1687869;83;21120;-74
2021/06/05 07:39:27;;;;;;;3.52;1.12;;;;;;;24.64;44.14;100843.96;1687554;83;21441;-73
2021/06/05 07:41:54;;;;;;;4.40;1.90;;;;;;;25.22;43.69;100841.14;1722882;82;21401;-72
2021/06/05 07:44:22;;;;;;;2.20;1.55;;;;;;;25.75;42.26;100838.40;1722535;82;20955;-79
2021/06/05 07:46:54;;;;;;;3.90;1.27;;;;;;;26.23;40.79;100837.45;1688133;84;20892;-78
2021/06/05 07:49:22;;;;;;;4.72;0.82;;;;;;;26.72;39.65;100842.12;1722765;83;21160;-80
2021/06/05 07:51:49;;;;;;;4.15;1.10;;;;;;;27.06;38.38;100832.49;1687944;83;21389;-79
2021/06/05 07:54:16;;;;;;;5.65;1.22;;;;;;;27.29;39.22;100830.92;1687789;83;20900;-80
2021/06/05 07:56:47;;;;;;;2.60;1.00;;;;;;;27.53;37.96;100830.97;1688043;85;21412;-77
2021/06/05 07:59:12;;;;;;;4.33;1.42;;;;;;;27.75;37.55;100826.32;1722694;82;20988;-78
2021/06/05 08:01:39;;;;;;;4.33;0.80;;;;;;;27.95;37.20;100826.44;1723011;82;21764;-78
2021/06/05 08:04:06;;;;;;;4.10;1.55;;;;;;;28.09;36.23;100817.88;1722833;83;20853;-77
2021/06/05 08:06:33;;;;;;;3.80;1.20;;;;;;;28.25;36.46;100826.11;1724345;82;20947;-76
2021/06/05 08:09:00;;;;;;;6.00;1.17;;;;;;;28.43;35.99;100820.95;1725165;83;20916;-80
2021/06/05 08:11:28;;;;;;;7.58;1.22;;;;;;;28.61;35.44;100816.86;1725452;82;20885;-75
2021/06/05 08:13:57;;;;;;;33.25;1.60;;;;;;;28.86;35.01;100812.52;1725408;83;20928;-78
2021/06/05 08:16:25;;;;;;;3.92;1.20;;;;;;;28.95;34.73;100805.05;1690729;82;20950;-83
2021/06/05 08:18:54;;;;;;;5.85;0.78;;;;;;;28.92;34.47;100804.09;1691139;82;20923;-82
2021/06/05 08:21:20;;;;;;;3.02;0.90;;;;;;;28.86;34.54;100799.55;1725971;82;20951;-81
2021/06/05 08:23:49;;;;;;;8.65;1.07;;;;;;;28.92;35.11;100802.22;1724137;82;20857;-83
2021/06/05 08:26:17;;;;;;;4.97;1.02;;;;;;;29.01;34.17;100793.38;1721224;83;21117;-82
2021/06/05 08:28:46;;;;;;;9.58;1.25;;;;;;;29.07;33.97;100789.85;1717435;82;20881;-81
2021/06/05 08:31:15;;;;;;;3.55;1.02;;;;;;;29.06;33.56;100786.86;1716414;83;20968;-82
2021/06/05 08:33:42;;;;;;;9.40;8.60;;;;;;;29.01;34.32;100781.23;1680585;84;21469;-81
2021/06/05 08:36:09;;;;;;;11.93;10.58;;;;;;;29.10;35.84;100781.88;1680991;85;20928;-81
2021/06/05 08:38:36;;;;;;;7.28;3.42;;;;;;;29.20;35.14;100776.88;1715208;83;21106;-79
2021/06/05 08:41:26;;;;;;;2.17;1.25;;;;;;;29.27;33.12;100780.92;1715053;82;21374;-79
2021/06/05 08:44:17;;;;;;;4.62;0.78;;;;;;;29.01;33.08;100777.18;1677369;85;20917;-77
2021/06/05 08:46:54;;;;;;;3.42;0.72;;;;;;;28.93;33.22;100776.07;1676953;85;21245;-84
2021/06/05 08:49:25;;;;;;;3.85;1.32;;;;;;;28.99;33.54;100771.69;1677739;85;20948;-85
2021/06/05 08:52:09;;;;;;;3.17;0.70;;;;;;;29.04;33.25;100773.26;1677655;85;21084;-84
2021/06/05 08:54:59;;;;;;;2.40;0.70;;;;;;;29.05;33.99;100770.33;1678057;85;20897;-85
2021/06/05 08:57:54;;;;;;;3.52;0.90;;;;;;;29.17;33.23;100762.95;1678629;85;21402;-80
2021/06/05 09:00:32;;;;;;;4.60;0.82;;;;;;;29.37;32.98;100764.25;1678411;85;20980;-79
2021/06/05 09:03:04;;;;;;;1.98;1.00;;;;;;;29.64;33.14;100759.61;1678032;85;20912;-80
2021/06/05 09:05:34;;;;;;;1.37;1.00;;;;;;;29.88;32.87;100755.34;1677595;85;21158;-79
2021/06/05 09:08:01;;;;;;;4.58;1.32;;;;;;;30.00;33.42;100754.97;1677239;84;20976;-80
2021/06/05 09:10:31;;;;;;;4.92;1.40;;;;;;;29.96;34.00;100753.21;1677386;85;21270;-78
2021/06/05 09:12:58;;;;;;;2.17;1.52;;;;;;;29.80;33.47;100756.44;1677776;84;20932;-86
2021/06/05 09:15:31;;;;;;;7.15;0.98;;;;;;;29.70;34.35;100758.26;1677730;85;20912;-83
2021/06/05 09:18:01;;;;;;;5.55;0.90;;;;;;;29.62;34.88;100753.05;1677824;85;21082;-85
2021/06/05 09:20:46;;;;;;;7.08;1.15;;;;;;;29.27;33.91;100756.08;1687648;83;20944;-81
2021/06/05 09:23:36;;;;;;;6.00;1.62;;;;;;;28.82;34.99;100757.81;1660077;85;20944;-79
2021/06/05 09:26:24;;;;;;;7.85;1.55;;;;;;;28.24;35.41;100756.50;1680403;84;21694;-80
2021/06/05 09:29:14;;;;;;;2.20;1.30;;;;;;;27.79;35.72;100750.77;1714835;82;21500;-79
2021/06/05 09:32:04;;;;;;;12.25;1.75;;;;;;;27.54;37.33;100750.45;1675351;85;21151;-77
2021/06/05 09:34:35;;;;;;;4.30;1.77;;;;;;;27.25;37.28;100752.37;1651439;85;21133;-78
2021/06/05 09:37:03;;;;;;;5.58;1.37;;;;;;;26.92;38.07;100749.95;1675290;85;21486;-82
2021/06/05 09:39:44;;;;;;;7.67;1.62;;;;;;;26.66;38.62;100748.23;1711803;83;21003;-74
2021/06/05 09:42:12;;;;;;;4.92;1.50;;;;;;;26.43;38.95;100742.19;1711545;83;21047;-77
2021/06/05 09:44:44;;;;;;;21.20;2.15;;;;;;;26.24;39.21;100736.45;1712274;83;21129;-82
2021/06/05 09:47:19;;;;;;;3.92;1.52;;;;;;;26.37;39.41;100748.33;1711950;83;20952;-81
2021/06/05 09:49:50;;;;;;;8.28;1.92;;;;;;;26.54;39.11;100744.88;1712315;83;21433;-73
2021/06/05 09:52:31;;;;;;;12.28;2.45;;;;;;;26.79;39.24;100739.44;1712213;83;20927;-75
2021/06/05 09:55:18;;;;;;;6.55;1.40;;;;;;;27.05;38.70;100733.90;1711301;83;20911;-77
2021/06/05 09:57:48;;;;;;;7.00;1.62;;;;;;;27.11;37.51;100725.03;1712124;83;21755;-77
2021/06/05 10:00:32;;;;;;;1.45;1.05;;;;;;;27.00;37.26;100733.14;1711762;83;20904;-73
2021/06/05 10:03:32;;;;;;;1.98;0.90;;;;;;;26.96;38.58;100730.53;1712193;83;20916;-74
2021/06/05 10:06:29;;;;;;;5.97;1.52;;;;;;;26.98;38.58;100727.65;1713255;82;21015;-73
2021/06/05 10:08:56;;;;;;;8.78;1.40;;;;;;;27.08;37.77;100727.62;1715103;82;20920;-74
2021/06/05 10:11:36;;;;;;;1.98;0.88;;;;;;;27.09;37.11;100723.88;1714890;83;21131;-73
2021/06/05 10:14:22;;;;;;;6.08;1.70;;;;;;;27.14;37.10;100717.89;1715190;82;20904;-75
2021/06/05 10:17:02;;;;;;;2.45;1.10;;;;;;;27.17;37.99;100716.17;1714910;82;21011;-73
2021/06/05 10:19:52;;;;;;;6.53;1.95;;;;;;;27.06;38.08;100717.56;1659672;85;21389;-76
2021/06/05 10:22:22;;;;;;;4.25;1.50;;;;;;;26.88;38.24;100724.80;1680458;85;21437;-76
2021/06/05 10:25:18;;;;;;;1.30;1.20;;;;;;;26.50;38.92;100723.42;1680594;85;21457;-76
2021/06/05 10:27:46;;;;;;;7.25;1.10;;;;;;;26.14;38.45;100730.55;1686480;84;20954;-80
2021/06/05 10:30:48;;;;;;;2.33;0.70;;;;;;;25.75;39.49;100728.25;1722703;82;21422;-78
2021/06/05 10:33:26;;;;;;;2.05;0.82;;;;;;;25.46;40.25;100719.71;1720689;83;21417;-76
2021/06/05 10:35:53;;;;;;;3.75;1.20;;;;;;;25.11;41.21;100720.27;1688672;84;21093;-78
2021/06/05 10:38:42;;;;;;;7.10;1.20;;;;;;;24.82;41.88;100714.38;1633941;85;22859;-79
2021/06/05 10:41:14;;;;;;;4.75;1.20;;;;;;;24.57;42.46;100721.31;1722889;83;20892;-72
2021/06/05 10:43:43;;;;;;;3.77;1.42;;;;;;;24.22;42.49;100720.06;1661199;85;24755;-81
2021/06/05 10:46:21;;;;;;;5.03;1.25;;;;;;;23.98;43.38;100713.02;1687928;83;20896;-74
2021/06/05 10:48:49;;;;;;;2.90;0.95;;;;;;;23.84;43.68;100711.95;1679800;85;20931;-73
2021/06/05 10:51:26;;;;;;;5.00;1.30;;;;;;;23.94;43.97;100709.03;1687757;83;21557;-72
2021/06/05 10:54:06;;;;;;;5.65;1.27;;;;;;;24.06;44.23;100706.80;1722538;83;21090;-71
2021/06/05 10:56:38;;;;;;;5.67;1.15;;;;;;;24.33;43.82;100708.91;1660388;85;20911;-73
2021/06/05 10:59:10;;;;;;;4.47;1.50;;;;;;;24.65;43.24;100697.59;1722645;83;20972;-75
2021/06/05 11:01:45;;;;;;;4.95;1.42;;;;;;;24.99;43.14;100695.75;1718516;83;20928;-74
2021/06/05 11:04:38;;;;;;;8.13;1.77;;;;;;;25.34;41.69;100690.66;1722528;82;21153;-75
2021/06/05 11:07:23;;;;;;;5.15;1.40;;;;;;;25.57;40.90;100690.55;1720994;82;21389;-75
2021/06/05 11:09:54;;;;;;;5.00;2.12;;;;;;;25.78;40.25;100690.25;1722593;82;20853;-76
2021/06/05 11:12:28;;;;;;;7.37;1.27;;;;;;;25.92;40.31;100686.70;1722634;83;20987;-76
2021/06/05 11:14:57;;;;;;;6.37;1.65;;;;;;;26.10;40.23;100683.59;1722604;83;20865;-76
2021/06/05 11:17:33;;;;;;;8.13;1.60;;;;;;;26.23;40.36;100683.71;1687528;85;21112;-76
2021/06/05 11:20:10;;;;;;;7.60;1.87;;;;;;;26.30;40.21;100691.80;1687558;85;21026;-73
2021/06/05 11:22:55;;;;;;;5.87;1.17;;;;;;;26.12;39.90;100702.19;1722642;83;20885;-76
2021/06/05 11:25:35;;;;;;;3.10;0.70;;;;;;;25.89;41.09;100699.18;1722564;82;20944;-74
2021/06/05 11:28:36;;;;;;;4.83;1.07;;;;;;;25.57;40.00;100698.59;1687585;83;21475;-75
2021/06/05 11:31:36;;;;;;;2.52;1.10;;;;;;;25.23;40.92;100701.38;1707199;83;21168;-72
2021/06/05 11:34:03;;;;;;;8.88;1.60;;;;;;;24.92;41.88;100701.54;1676941;84;21035;-72
2021/06/05 11:36:47;;;;;;;5.40;0.93;;;;;;;24.60;42.70;100700.83;1707562;84;20936;-73
2021/06/05 11:39:33;;;;;;;4.58;1.22;;;;;;;24.39;43.39;100696.66;1707153;84;20920;-71
2021/06/05 11:42:21;;;;;;;2.52;0.88;;;;;;;24.19;43.18;100703.84;1707466;84;21003;-74
2021/06/05 11:45:00;;;;;;;2.40;0.88;;;;;;;24.00;43.98;100698.95;1694657;84;21158;-75
2021/06/05 11:47:38;;;;;;;4.37;0.80;;;;;;;23.92;43.71;100703.87;1685564;84;20916;-74